KSCD

Merkel Field Sylacauga Municipal Airport

Sylacauga, Alabama, USA
METAR KSCD 121915Z AUTO 19007KT 10SM CLR 11/01 A3021 RMK AO2 T01130011
Observed Flight Rules
Dec-12 @ 19:15 UTC (23 minutes ago) Visual Flight Rules
Wind Visibility Clouds
190° at 7 knots 10 miles
  • Clear skies
Temperatures Readings
Current 11°C / 52°F
Dewpoint 1°C / 34°F
Humidity 50%
Altimeter 30.21" Hg
Pressure 1023 hPa
Elevation 173
METAR KSCD 121915Z AUTO 19007KT 10SM CLR 11/01 A3021 RMK AO2 T01130011
Observed Flight Rules
Dec-12 @ 19:15 UTC
(23 minutes ago)
VFR
Wind Visibility
190° at 7 knots 10 miles
Clouds
  • Clear skies
Temperature Dewpoint
11°C / 52°F 1°C / 34°F
Humidity Altimeter Pressure
50% 30.21" Hg 1023 hPa